Terminal Aerodrome Forecast
Issued by NWS Atlanta, GA

Home | Current Version | Previous Version | Text Only | Print | Product List | Glossary On
Versions: 1 2 3 4 5 6 7 8 9 10 11 12 13 14 15 16 17 18 19 20 21 22 23 24 25 26 27 28 29 30 31 32 33 34 35 36 37
000
FTUS42 KFFC 311600 AAC
TAFATL
TAF AMD
KATL 311605Z 3116/0118 09007KT P6SM SCT040 BKN150
      TEMPO 3116/3117 BKN017
     FM311800 07007KT P6SM BKN050
     FM010000 07008KT P6SM BKN150
     FM010900 06008KT 6SM BR BKN008 PROB30 0109/0115 4SM -RA BR
     FM011500 07006KT P6SM VCSH SCT015 BKN025
      TEMPO 0115/0118 4SM -SHRA BR BKN015=

USA.gov is the U.S. government's official web portal to all federal, state and local government web resources and services.